Mc Cook Ben Nelson Regional Airport
KMCK : now visible

Airfield :











YOU CAN JOIN US ON...

 
LOGIN :

Register | Disclaimer

   EN    FR    IT 

 









Legend :    VFR   Marginal VFR   IFR   Intensive IFR   Very Intensive IFR
Visi :
Ceiling :
>= 8 km
>= 3000ft
5 to 8 km
1000 to 3000 ft
1500m to 5 km
500 to 1000 ft
800 to 1500m
200 to 500 ft
< 800m
< 200 ft
Symbols :   Thunderstorms  Fog  Heavy snow  Heavy precipitations  Wind > 20 kt






- Airport Elevation : 2583 ft


KMCK - Mc Cook Ben Nelson Regional

CURRENT METAR :
  • 152253Z AUTO 34023G31KT 10SM CLR 03/M10 A3001 RMK AO2 PK WND 34038/2208 SLP182 T00331100

EXPIRED METARs :
  • 152153Z AUTO 34026G36KT 10SM CLR 04/M11 A3000 RMK AO2 PK WND 35041/2105 SLP177 T00391106
  • 152053Z AUTO 34027G39KT 10SM CLR 03/M10 A2999 RMK AO2 PK WND 33041/2019 SLP173 T00331100 56013

TAF KMCK
Valid from the 15 at 18:00 until the 16 at 18:00 UTC


151720Z 1518/1618 33025G40KT P6SM OVC070
FM152200 34030G40KT 6SM BLDU BR FEW250
FM160000 33022G30KT P6SM FEW250
FM160200 32012KT P6SM SKC
FM160300 32011KT P6SM SKC WS020/34040KT
FM160400 31010KT P6SM SKC
KZDV FIR / North America



MET'MAP, your aeronautical weather chart ! - Copyright ORBIFLY December 2007 - Disclaimer

ORBIFLY MET'MAP TEAM :

Programming & Development : Alexandra Zaïnal
Concept & original design : Baudouin d'Aumeries
Assistance for programming : Marc-Olivier Méhu
Technical & hardware support : Manuel Goepfert

Contact : metmap@orbifly.com




SOURCES & CREDITS :

   NOAA       Earth
Advisory